Time;durP1;ratioP1;P1;durP2;ratioP2;P2;SDS_P1;SDS_P2;PMS_P1;PMS_P2;Temp;Humidity;BMP_temperature;BMP_pressure;BME280_temperature;BME280_humidity;BME280_pressure;Samples;Min_cycle;Max_cycle;Signal;HPM_P1;HPM_P2
2021/06/17 00:00:17;;;;;;;4.90;4.40;;;;;;;19.34;63.30;100845.94;3554896;40;20090;-57
2021/06/17 00:02:46;;;;;;;4.93;4.43;;;;;;;19.41;63.31;100849.31;3554948;40;20431;-58
2021/06/17 00:05:16;;;;;;;4.80;4.30;;;;;;;19.27;63.94;100843.38;3556072;40;20123;-56
2021/06/17 00:07:46;;;;;;;6.32;4.85;;;;;;;19.44;63.58;100846.72;3558007;40;20097;-55
2021/06/17 00:10:20;;;;;;;5.45;4.97;;;;;;;19.47;63.85;100846.69;3552552;40;20436;-59
2021/06/17 00:12:48;;;;;;;5.78;4.82;;;;;;;19.37;64.13;100850.25;3554390;40;20068;-53
2021/06/17 00:15:17;;;;;;;5.68;5.07;;;;;;;19.16;65.41;100846.06;3553093;40;20443;-55
2021/06/17 00:17:46;;;;;;;5.88;4.75;;;;;;;19.13;65.44;100850.41;3554150;40;20046;-56
2021/06/17 00:20:14;;;;;;;8.13;5.10;;;;;;;19.05;66.22;100848.75;3555451;40;20058;-54
2021/06/17 00:22:43;;;;;;;7.03;5.15;;;;;;;19.06;66.08;100855.66;3560448;40;20076;-56
2021/06/17 00:25:10;;;;;;;5.70;4.75;;;;;;;19.16;66.17;100848.66;3554825;40;20050;-58
2021/06/17 00:27:38;;;;;;;6.95;5.50;;;;;;;19.03;67.16;100844.44;3554256;40;20440;-56
2021/06/17 00:30:07;;;;;;;6.97;5.50;;;;;;;18.98;67.78;100841.00;3554540;40;20085;-53
2021/06/17 00:32:35;;;;;;;7.07;5.90;;;;;;;19.28;66.62;100848.59;3554964;40;20120;-56
2021/06/17 00:35:03;;;;;;;8.18;6.20;;;;;;;19.06;67.65;100850.47;3554627;40;20081;-51
2021/06/17 00:37:30;;;;;;;10.13;6.32;;;;;;;19.04;68.58;100848.75;3554655;40;20158;-57
2021/06/17 00:39:59;;;;;;;10.00;6.72;;;;;;;18.98;68.79;100854.84;3554718;40;20098;-56
2021/06/17 00:42:26;;;;;;;7.53;6.82;;;;;;;18.95;69.61;100854.00;3555204;40;20093;-57
2021/06/17 00:44:53;;;;;;;9.63;7.70;;;;;;;18.99;69.68;100853.97;3554237;40;20369;-56
2021/06/17 00:47:20;;;;;;;7.15;6.47;;;;;;;18.99;69.62;100853.97;3552894;40;20093;-53
2021/06/17 00:49:48;;;;;;;11.95;7.40;;;;;;;18.89;70.70;100852.31;3552288;40;20090;-59
2021/06/17 00:52:15;;;;;;;8.98;7.03;;;;;;;18.89;70.74;100854.88;3551362;40;20086;-53
2021/06/17 00:54:42;;;;;;;10.30;8.13;;;;;;;18.97;71.09;100852.25;3552800;40;20544;-54
2021/06/17 00:57:10;;;;;;;8.68;7.82;;;;;;;18.92;71.35;100843.66;3553182;40;20086;-55
2021/06/17 00:59:43;;;;;;;9.43;7.57;;;;;;;18.99;71.37;100847.91;3552619;40;20050;-53
2021/06/17 01:02:10;;;;;;;9.20;7.88;;;;;;;18.87;71.48;100842.81;3552546;40;20093;-55
2021/06/17 01:04:38;;;;;;;8.90;8.00;;;;;;;18.95;71.98;100836.72;3552302;40;20408;-56
2021/06/17 01:07:05;;;;;;;11.68;8.25;;;;;;;18.83;72.38;100842.81;3555052;40;20109;-55
2021/06/17 01:09:47;;;;;;;9.88;8.05;;;;;;;18.93;72.65;100835.84;3552971;40;20458;-54
2021/06/17 01:12:38;;;;;;;9.85;8.40;;;;;;;18.98;72.65;100839.25;3553185;40;20060;-56
2021/06/17 01:15:08;;;;;;;16.67;8.88;;;;;;;18.84;73.17;100838.50;3554576;40;20058;-54
2021/06/17 01:17:45;;;;;;;11.55;9.32;;;;;;;18.86;73.79;100828.97;3552506;40;20042;-55
2021/06/17 01:20:27;;;;;;;11.70;9.73;;;;;;;18.80;73.87;100827.25;3550249;40;20357;-53
2021/06/17 01:23:39;;;;;;;10.70;9.43;;;;;;;18.83;74.22;100829.84;3553841;40;20072;-54
2021/06/17 01:26:19;;;;;;;10.15;9.15;;;;;;;18.94;73.79;100837.56;3554987;40;20350;-55
2021/06/17 01:28:51;;;;;;;16.42;10.95;;;;;;;18.82;75.34;100827.28;3552214;40;20050;-54
2021/06/17 01:31:25;;;;;;;11.70;10.18;;;;;;;18.76;75.82;100832.47;3551491;40;20412;-54
2021/06/17 01:33:55;;;;;;;12.05;10.68;;;;;;;18.85;75.24;100827.25;3552049;40;20062;-56
2021/06/17 01:36:31;;;;;;;12.93;10.07;;;;;;;18.81;75.50;100834.19;3553171;40;20425;-56
2021/06/17 01:39:01;;;;;;;14.73;10.63;;;;;;;18.72;76.27;100821.28;3552486;40;20113;-57
2021/06/17 01:41:32;;;;;;;14.10;10.43;;;;;;;18.71;77.14;100835.09;3555274;40;20093;-56
2021/06/17 01:44:00;;;;;;;12.55;11.13;;;;;;;18.83;76.43;100824.66;3552703;40;20051;-57
2021/06/17 01:46:29;;;;;;;13.25;11.27;;;;;;;18.77;77.10;100827.31;3553225;40;20093;-55
2021/06/17 01:48:57;;;;;;;12.43;11.23;;;;;;;18.88;77.21;100822.03;3552125;40;20168;-56
2021/06/17 01:51:26;;;;;;;12.60;11.27;;;;;;;18.90;76.91;100828.06;3552760;40;20060;-56
2021/06/17 01:53:53;;;;;;;14.65;11.48;;;;;;;18.86;76.90;100816.00;3552354;40;20323;-57
2021/06/17 01:56:23;;;;;;;12.55;11.30;;;;;;;18.75;77.63;100816.06;3552907;40;20062;-57
2021/06/17 01:58:56;;;;;;;12.98;11.57;;;;;;;18.72;78.08;100813.50;3551162;40;20450;-56
2021/06/17 02:01:29;;;;;;;14.20;11.82;;;;;;;18.73;78.54;100814.34;3553180;40;20082;-55
2021/06/17 02:04:06;;;;;;;14.20;11.57;;;;;;;18.80;77.50;100810.84;3548183;40;20069;-55
2021/06/17 02:06:34;;;;;;;13.75;12.30;;;;;;;18.75;78.67;100812.59;3552298;40;20050;-57
2021/06/17 02:09:05;;;;;;;16.90;12.48;;;;;;;18.68;78.39;100816.09;3552065;40;20097;-55
2021/06/17 02:11:33;;;;;;;18.13;12.60;;;;;;;18.73;78.79;100809.16;3552218;40;20045;-54
2021/06/17 02:14:00;;;;;;;15.05;13.00;;;;;;;18.67;79.05;100817.78;3552459;40;20045;-53
2021/06/17 02:16:28;;;;;;;13.05;11.63;;;;;;;18.70;79.38;100819.56;3552634;40;20062;-54
2021/06/17 02:18:57;;;;;;;14.00;12.63;;;;;;;18.71;79.32;100816.94;3551889;40;20052;-54
2021/06/17 02:21:28;;;;;;;13.90;12.57;;;;;;;18.81;78.65;100812.56;3552939;40;20090;-54
2021/06/17 02:23:58;;;;;;;14.50;12.75;;;;;;;18.63;79.33;100807.47;3552476;40;20035;-55
2021/06/17 02:26:26;;;;;;;13.07;11.77;;;;;;;18.65;79.39;100816.94;3553386;40;20081;-54
2021/06/17 02:28:57;;;;;;;14.70;13.25;;;;;;;18.57;80.17;100804.00;3551983;40;20574;-56
2021/06/17 02:31:30;;;;;;;15.65;13.68;;;;;;;18.59;79.96;100814.41;3552713;40;20091;-53
2021/06/17 02:33:58;;;;;;;16.80;13.30;;;;;;;18.56;80.79;100812.66;3552231;40;20097;-54
2021/06/17 02:36:26;;;;;;;15.68;13.65;;;;;;;18.63;80.37;100807.47;3552779;40;20077;-56
2021/06/17 02:39:00;;;;;;;15.38;13.77;;;;;;;18.68;80.72;100803.97;3551862;40;20088;-56
2021/06/17 02:41:29;;;;;;;15.85;13.93;;;;;;;18.57;80.67;100798.81;3552573;40;20321;-56
2021/06/17 02:43:59;;;;;;;15.00;13.10;;;;;;;18.50;81.45;100793.69;3552861;40;20054;-57
2021/06/17 02:46:26;;;;;;;19.30;14.80;;;;;;;18.52;81.55;100800.59;3552614;40;20076;-56
2021/06/17 02:48:55;;;;;;;15.82;13.63;;;;;;;18.48;81.84;100798.00;3551611;40;20054;-55
2021/06/17 02:51:23;;;;;;;15.68;13.18;;;;;;;18.43;81.77;100798.03;3552667;40;20060;-55
2021/06/17 02:53:51;;;;;;;16.67;13.85;;;;;;;18.46;81.87;100803.22;3551967;40;20065;-53
2021/06/17 02:57:00;;;;;;;18.92;14.45;;;;;;;18.40;82.69;100800.66;3552495;40;20321;-57
2021/06/17 03:00:06;;;;;;;16.58;13.90;;;;;;;18.44;82.75;100801.50;3554145;40;20054;-54
2021/06/17 03:02:48;;;;;;;18.17;14.93;;;;;;;18.41;82.44;100798.94;3553605;40;20423;-55
2021/06/17 03:05:28;;;;;;;16.23;13.77;;;;;;;18.39;82.92;100795.47;3552648;40;20086;-52
2021/06/17 03:08:18;;;;;;;17.40;15.38;;;;;;;18.35;83.12;100793.75;3551991;40;20089;-54
2021/06/17 03:10:55;;;;;;;16.20;14.50;;;;;;;18.37;83.47;100786.84;3555173;40;20408;-55
2021/06/17 03:13:26;;;;;;;17.77;14.82;;;;;;;18.43;83.42;100785.06;3550817;40;20154;-57
2021/06/17 03:16:03;;;;;;;16.98;15.27;;;;;;;18.44;82.80;100783.34;3551685;40;20054;-57
2021/06/17 03:18:32;;;;;;;16.90;14.65;;;;;;;18.44;83.22;100780.75;3552769;40;20046;-55
2021/06/17 03:21:02;;;;;;;16.80;15.00;;;;;;;18.55;82.21;100779.84;3551972;40;20069;-54
2021/06/17 03:23:32;;;;;;;19.48;14.70;;;;;;;18.55;82.95;100782.41;3552460;40;20058;-57
2021/06/17 03:26:06;;;;;;;18.15;15.20;;;;;;;18.52;83.76;100778.97;3552043;40;20053;-58
2021/06/17 03:28:35;;;;;;;19.73;15.45;;;;;;;18.57;83.39;100775.47;3551974;40;20152;-55
2021/06/17 03:31:06;;;;;;;18.75;15.38;;;;;;;18.55;83.28;100773.78;3552475;40;20060;-57
2021/06/17 03:33:36;;;;;;;21.80;16.55;;;;;;;18.65;83.67;100779.78;3552114;40;20058;-57
2021/06/17 03:36:07;;;;;;;17.58;15.63;;;;;;;18.73;83.10;100781.50;3537967;40;20120;-57
2021/06/17 03:38:37;;;;;;;20.77;16.00;;;;;;;18.70;82.87;100778.91;3551515;40;20243;-55
2021/06/17 03:41:04;;;;;;;18.70;16.40;;;;;;;18.62;83.65;100766.81;3552425;40;20103;-54
2021/06/17 03:43:34;;;;;;;19.63;16.75;;;;;;;18.66;83.89;100777.16;3552139;40;20092;-55
2021/06/17 03:46:02;;;;;;;19.42;16.17;;;;;;;18.74;83.44;100774.56;3551795;40;20081;-57
2021/06/17 03:48:30;;;;;;;21.45;16.67;;;;;;;18.76;83.35;100776.25;3552141;40;20053;-54
2021/06/17 03:50:59;;;;;;;20.17;16.25;;;;;;;18.78;82.95;100776.28;3551911;40;20341;-58
2021/06/17 03:53:27;;;;;;;17.23;15.48;;;;;;;18.86;82.72;100778.78;3552452;40;20078;-58
2021/06/17 03:55:55;;;;;;;20.33;16.10;;;;;;;18.94;82.48;100785.66;3551625;40;20090;-55
2021/06/17 03:58:26;;;;;;;21.33;15.85;;;;;;;19.01;81.94;100787.34;3552068;40;20103;-52
2021/06/17 04:00:56;;;;;;;19.98;15.85;;;;;;;19.02;81.90;100788.19;3551653;40;20062;-56
2021/06/17 04:03:27;;;;;;;18.80;15.52;;;;;;;19.14;82.02;100789.84;3552298;40;20046;-58
2021/06/17 04:05:56;;;;;;;18.05;15.82;;;;;;;19.10;81.63;100786.41;3551973;40;20080;-54
2021/06/17 04:08:29;;;;;;;18.05;16.20;;;;;;;19.22;81.90;100794.09;3552582;40;20043;-56
2021/06/17 04:10:59;;;;;;;21.80;16.35;;;;;;;19.20;82.03;100789.81;3551402;40;20121;-56
2021/06/17 04:13:34;;;;;;;18.38;15.93;;;;;;;19.32;81.25;100794.91;3551748;40;20409;-54
2021/06/17 04:16:03;;;;;;;20.35;16.30;;;;;;;19.47;80.16;100793.91;3551766;40;20054;-54
2021/06/17 04:18:33;;;;;;;20.63;16.48;;;;;;;19.31;81.06;100788.81;3551237;40;20060;-54
2021/06/17 04:21:03;;;;;;;17.67;15.88;;;;;;;19.50;79.95;100793.84;3548187;40;20076;-55
2021/06/17 04:23:32;;;;;;;19.25;17.15;;;;;;;19.39;80.89;100795.69;3553310;40;20066;-56
2021/06/17 04:26:02;;;;;;;19.23;16.25;;;;;;;19.43;80.61;100792.19;3553245;40;20064;-56
2021/06/17 04:28:31;;;;;;;19.23;15.73;;;;;;;19.52;80.68;100790.38;3552851;40;20069;-57
2021/06/17 04:31:02;;;;;;;19.38;17.30;;;;;;;19.65;79.77;100798.94;3552179;40;20312;-57
2021/06/17 04:33:32;;;;;;;24.67;16.83;;;;;;;19.67;79.84;100802.38;3553041;40;20431;-58
2021/06/17 04:36:03;;;;;;;20.73;16.17;;;;;;;19.81;78.43;100803.09;3551893;40;20070;-54
2021/06/17 04:38:31;;;;;;;19.33;17.40;;;;;;;19.84;79.33;100805.69;3547061;40;20053;-58
2021/06/17 04:40:58;;;;;;;18.48;16.50;;;;;;;19.82;79.07;100804.81;3552261;40;20117;-55
2021/06/17 04:43:26;;;;;;;23.80;17.30;;;;;;;20.01;78.09;100812.41;3554208;40;20068;-54
2021/06/17 04:45:55;;;;;;;22.08;17.63;;;;;;;20.00;78.73;100806.34;3551417;40;20102;-50
2021/06/17 04:48:24;;;;;;;19.00;16.98;;;;;;;20.07;78.33;100814.97;3550315;40;20116;-57
2021/06/17 04:50:51;;;;;;;20.95;16.95;;;;;;;20.33;77.24;100812.88;3552324;40;20365;-54
2021/06/17 04:53:19;;;;;;;18.42;16.50;;;;;;;20.29;76.63;100816.44;3552570;40;20050;-57
2021/06/17 04:55:52;;;;;;;18.30;16.40;;;;;;;20.56;76.51;100822.16;3551375;40;20086;-51
2021/06/17 04:58:21;;;;;;;20.85;17.90;;;;;;;20.56;76.21;100815.22;3550882;40;20113;-57
2021/06/17 05:00:48;;;;;;;18.00;16.05;;;;;;;20.68;75.43;100819.41;3551711;40;20098;-59
2021/06/17 05:03:17;;;;;;;18.17;15.45;;;;;;;20.69;75.75;100817.66;3550813;40;20433;-57
2021/06/17 05:05:46;;;;;;;21.25;16.60;;;;;;;20.56;76.35;100820.44;3551865;40;20410;-57
2021/06/17 05:10:57;;;;;;;24.63;17.10;;;;;;;20.87;74.98;100819.16;3551745;40;20070;-53
2021/06/17 05:13:32;;;;;;;19.95;16.52;;;;;;;20.85;75.44;100824.41;3551104;40;20061;-54
2021/06/17 05:16:02;;;;;;;20.30;15.60;;;;;;;21.18;74.53;100827.38;3551873;40;20069;-59
2021/06/17 05:18:32;;;;;;;20.23;16.10;;;;;;;21.28;74.30;100837.59;3551995;40;20053;-58
2021/06/17 05:21:00;;;;;;;19.67;16.10;;;;;;;21.52;73.46;100833.75;3551841;40;20500;-59
2021/06/17 05:23:27;;;;;;;19.17;15.65;;;;;;;21.54;73.13;100833.75;3552496;40;20077;-55
2021/06/17 05:26:00;;;;;;;20.67;15.82;;;;;;;21.86;72.23;100834.03;3551489;40;20364;-53
2021/06/17 05:28:29;;;;;;;22.90;16.25;;;;;;;21.82;71.73;100841.94;3547117;40;20698;-57
2021/06/17 05:31:02;;;;;;;16.60;14.80;;;;;;;22.01;71.54;100832.03;3551788;40;20059;-55
2021/06/17 05:33:30;;;;;;;21.35;15.48;;;;;;;22.02;71.56;100834.59;3552151;40;20053;-56
2021/06/17 05:36:00;;;;;;;19.85;16.02;;;;;;;22.08;70.27;100831.84;3552022;40;20054;-58
2021/06/17 05:38:30;;;;;;;16.60;14.95;;;;;;;22.16;69.57;100831.75;3557152;40;20058;-53
2021/06/17 05:40:58;;;;;;;20.45;14.88;;;;;;;22.52;68.58;100830.13;3551882;40;20058;-56
2021/06/17 05:43:26;;;;;;;21.88;15.15;;;;;;;22.39;68.82;100833.88;3552457;40;20581;-58
2021/06/17 05:45:53;;;;;;;18.52;14.48;;;;;;;22.27;69.12;100840.19;3551485;40;20046;-56
2021/06/17 05:48:20;;;;;;;17.52;14.52;;;;;;;22.44;68.07;100836.41;3552342;40;20696;-57
2021/06/17 05:50:54;;;;;;;16.05;14.32;;;;;;;22.59;67.77;100847.38;3550718;40;20058;-58
2021/06/17 05:53:21;;;;;;;17.20;14.63;;;;;;;22.62;67.81;100839.47;3551472;40;20072;-57
2021/06/17 05:55:49;;;;;;;16.90;15.18;;;;;;;22.88;67.57;100843.28;3550875;40;20057;-56
2021/06/17 05:58:16;;;;;;;19.95;14.57;;;;;;;22.75;68.19;100836.59;3552037;40;20633;-57
2021/06/17 06:00:43;;;;;;;19.15;14.20;;;;;;;22.86;67.25;100834.59;3553276;40;20106;-53
2021/06/17 06:03:11;;;;;;;17.65;14.95;;;;;;;22.77;67.81;100838.28;3554244;40;20049;-52
2021/06/17 06:05:39;;;;;;;16.98;15.23;;;;;;;23.01;66.67;100836.88;3551465;40;20544;-58
2021/06/17 06:08:16;;;;;;;21.20;15.50;;;;;;;23.21;66.09;100840.81;3550861;40;20061;-54
2021/06/17 06:10:43;;;;;;;17.27;14.13;;;;;;;23.38;64.93;100842.06;3551586;40;20304;-56
2021/06/17 06:13:12;;;;;;;16.55;14.57;;;;;;;23.45;64.02;100845.41;3555519;40;20053;-56
2021/06/17 06:15:41;;;;;;;17.27;14.30;;;;;;;23.70;65.04;100847.44;3560151;40;20045;-54
2021/06/17 06:18:14;;;;;;;15.55;13.95;;;;;;;23.81;62.52;100841.03;3561220;40;20081;-57
2021/06/17 06:20:44;;;;;;;18.00;14.05;;;;;;;24.10;62.40;100849.84;3561144;40;20085;-58
2021/06/17 06:23:12;;;;;;;15.68;13.13;;;;;;;24.28;62.19;100838.84;3562071;40;20049;-57
2021/06/17 06:25:44;;;;;;;17.70;13.40;;;;;;;24.32;61.07;100845.72;3561183;40;20053;-56
2021/06/17 06:28:12;;;;;;;15.90;13.48;;;;;;;24.53;59.53;100851.25;3550284;40;20046;-50
2021/06/17 06:30:40;;;;;;;20.15;13.90;;;;;;;24.70;59.52;100850.75;3559735;40;20135;-55
2021/06/17 06:33:08;;;;;;;14.02;12.60;;;;;;;24.89;58.42;100857.13;3561352;40;20046;-54
2021/06/17 06:35:36;;;;;;;15.38;12.48;;;;;;;24.72;58.18;100855.03;3560636;40;20045;-54
2021/06/17 06:38:07;;;;;;;14.43;12.82;;;;;;;25.03;57.86;100854.09;3558697;40;20057;-55
2021/06/17 06:40:35;;;;;;;14.18;12.70;;;;;;;25.28;56.93;100854.19;3551777;40;20056;-58
2021/06/17 06:43:04;;;;;;;15.18;12.88;;;;;;;25.41;57.37;100855.50;3557992;40;20137;-52
2021/06/17 06:45:31;;;;;;;13.43;12.13;;;;;;;25.40;55.23;100856.41;3557282;40;20054;-59
2021/06/17 06:47:58;;;;;;;15.13;11.93;;;;;;;25.28;54.71;100864.66;3558393;40;20072;-54
2021/06/17 06:50:25;;;;;;;13.80;12.35;;;;;;;25.63;54.28;100860.88;3558042;40;20147;-55
2021/06/17 06:52:52;;;;;;;13.50;12.10;;;;;;;25.70;54.12;100866.75;3558089;40;20081;-53
2021/06/17 06:55:21;;;;;;;13.70;12.38;;;;;;;26.12;54.33;100869.72;3558197;40;20078;-55
2021/06/17 06:57:49;;;;;;;16.13;11.55;;;;;;;26.33;52.63;100871.53;3557124;40;20851;-57
2021/06/17 07:00:17;;;;;;;14.45;12.20;;;;;;;26.29;52.36;100876.94;3559945;40;20088;-54
2021/06/17 07:02:45;;;;;;;13.20;11.18;;;;;;;26.66;51.45;100876.47;3552696;40;20052;-51
2021/06/17 07:05:13;;;;;;;12.85;11.55;;;;;;;26.91;50.57;100877.25;3551190;40;20049;-56
2021/06/17 07:07:41;;;;;;;13.60;11.43;;;;;;;27.06;49.68;100880.19;3555775;40;20328;-55
2021/06/17 07:10:10;;;;;;;12.48;11.30;;;;;;;27.11;48.75;100881.72;3558501;40;20152;-56
2021/06/17 07:12:38;;;;;;;11.88;10.77;;;;;;;26.98;49.10;100884.88;3551570;40;20069;-52
2021/06/17 07:15:06;;;;;;;14.25;10.70;;;;;;;26.89;50.00;100875.56;3554478;40;20082;-54
2021/06/17 07:17:34;;;;;;;12.98;11.13;;;;;;;27.53;49.16;100880.91;3552859;40;20069;-53
2021/06/17 07:20:03;;;;;;;12.45;11.30;;;;;;;27.70;49.52;100879.34;3549652;40;20080;-56
2021/06/17 07:22:30;;;;;;;10.82;9.82;;;;;;;27.76;45.91;100879.09;3559035;40;20072;-57
2021/06/17 07:24:58;;;;;;;11.65;10.52;;;;;;;27.68;46.24;100874.13;3560896;40;20042;-54
2021/06/17 07:27:28;;;;;;;12.40;10.82;;;;;;;28.17;46.02;100872.88;3559665;40;20351;-55
2021/06/17 07:29:55;;;;;;;11.85;10.65;;;;;;;28.22;45.07;100877.94;3559903;40;20050;-59
2021/06/17 07:32:22;;;;;;;10.77;9.70;;;;;;;28.22;43.73;100874.47;3560918;40;20049;-57
2021/06/17 07:34:50;;;;;;;13.65;10.15;;;;;;;28.65;44.37;100868.94;3558555;40;20073;-55
2021/06/17 07:37:17;;;;;;;11.10;10.00;;;;;;;28.78;43.53;100874.50;3552833;40;20112;-54
2021/06/17 07:39:44;;;;;;;13.90;9.63;;;;;;;29.30;43.14;100879.91;3557106;40;20055;-51
2021/06/17 07:42:12;;;;;;;10.55;9.60;;;;;;;29.26;41.67;100883.66;3556734;40;20069;-56
2021/06/17 07:44:39;;;;;;;11.85;10.77;;;;;;;29.00;43.04;100879.66;3551059;40;20074;-53
2021/06/17 07:47:06;;;;;;;12.88;10.15;;;;;;;28.99;43.09;100891.13;3559222;40;20070;-56
2021/06/17 07:49:33;;;;;;;11.48;10.25;;;;;;;29.42;40.97;100878.47;3549969;40;20666;-52
2021/06/17 07:52:01;;;;;;;10.98;9.88;;;;;;;28.77;42.14;100882.50;3556529;40;20061;-61
2021/06/17 07:54:29;;;;;;;11.07;9.60;;;;;;;29.51;41.72;100885.94;3546829;40;20128;-49
2021/06/17 07:56:57;;;;;;;11.60;9.13;;;;;;;30.13;40.07;100891.56;3555783;40;20058;-53
2021/06/17 07:59:25;;;;;;;13.93;9.80;;;;;;;30.90;39.21;100889.19;3553834;40;20051;-59
2021/06/17 08:01:53;;;;;;;11.95;9.45;;;;;;;30.51;39.81;100892.22;3559536;40;20640;-54
2021/06/17 08:04:20;;;;;;;13.40;9.27;;;;;;;30.75;38.59;100891.84;3560871;40;20077;-52
2021/06/17 08:06:47;;;;;;;9.90;9.10;;;;;;;31.13;36.21;100894.97;3559931;40;20057;-57
2021/06/17 08:09:18;;;;;;;9.95;9.05;;;;;;;31.58;36.13;100891.47;3557724;40;20085;-59
2021/06/17 08:11:47;;;;;;;13.35;9.20;;;;;;;31.96;35.94;100893.66;3552805;40;20136;-52
2021/06/17 08:14:25;;;;;;;10.10;9.20;;;;;;;32.15;34.81;100893.38;3554434;40;20054;-51
2021/06/17 08:17:02;;;;;;;10.30;9.30;;;;;;;32.32;35.22;100887.91;3550830;40;20050;-58
2021/06/17 08:19:31;;;;;;;9.55;8.65;;;;;;;32.69;33.63;100888.28;3559277;40;20057;-52
2021/06/17 08:22:03;;;;;;;10.82;9.18;;;;;;;32.71;34.23;100889.00;3559300;40;20056;-57
2021/06/17 08:24:32;;;;;;;10.30;9.30;;;;;;;31.78;34.95;100887.63;3561316;40;20306;-55
2021/06/17 08:26:59;;;;;;;12.15;9.73;;;;;;;31.50;36.20;100882.28;3557942;40;20105;-60
2021/06/17 08:29:26;;;;;;;11.52;8.55;;;;;;;31.70;35.87;100882.78;3549857;40;20324;-57
2021/06/17 08:31:54;;;;;;;9.52;8.73;;;;;;;31.62;36.32;100885.06;3555594;40;20049;-56
2021/06/17 08:34:24;;;;;;;10.23;9.23;;;;;;;31.36;36.25;100891.03;3555410;40;20261;-50
2021/06/17 08:36:52;;;;;;;13.95;9.23;;;;;;;31.34;35.82;100887.63;3551357;40;20066;-53
2021/06/17 08:39:20;;;;;;;11.25;9.25;;;;;;;31.53;36.62;100896.19;3553535;40;20049;-57
2021/06/17 08:41:47;;;;;;;9.15;8.40;;;;;;;31.31;36.64;100886.00;3552052;40;20374;-51
2021/06/17 08:44:14;;;;;;;10.98;8.93;;;;;;;31.03;36.59;100891.13;3550320;40;20093;-51
2021/06/17 08:46:42;;;;;;;11.82;8.57;;;;;;;31.06;37.92;100883.91;3552592;40;20331;-54
2021/06/17 08:49:11;;;;;;;10.25;8.35;;;;;;;30.87;36.01;100897.28;3552222;40;20073;-54
2021/06/17 08:51:40;;;;;;;9.45;8.52;;;;;;;31.01;36.78;100887.72;3548721;40;21166;-49
2021/06/17 08:54:11;;;;;;;13.20;9.25;;;;;;;31.12;36.74;100891.47;3558458;40;20395;-57
2021/06/17 08:56:41;;;;;;;9.30;8.23;;;;;;;31.14;35.73;100886.06;3551789;40;20063;-53
2021/06/17 08:59:09;;;;;;;8.70;7.85;;;;;;;30.95;36.42;100886.28;3549406;40;20054;-59
2021/06/17 09:01:38;;;;;;;8.77;7.65;;;;;;;31.21;37.02;100886.59;3547329;40;20097;-52
2021/06/17 09:04:26;;;;;;;10.73;8.68;;;;;;;31.53;36.57;100890.06;3557167;40;20068;-53
2021/06/17 09:07:08;;;;;;;9.55;8.57;;;;;;;31.47;35.41;100896.53;3559401;40;20431;-57
2021/06/17 09:09:46;;;;;;;9.25;8.35;;;;;;;31.45;35.86;100887.84;3549649;40;20045;-52
2021/06/17 09:12:18;;;;;;;11.77;8.10;;;;;;;31.40;35.07;100889.91;3560453;40;20057;-56
2021/06/17 09:15:03;;;;;;;9.63;7.47;;;;;;;31.33;35.80;100888.56;3560079;40;20034;-57
2021/06/17 09:17:30;;;;;;;8.18;7.38;;;;;;;31.48;35.54;100886.78;3559420;40;20045;-54
2021/06/17 09:19:57;;;;;;;8.23;7.45;;;;;;;31.10;35.03;100887.19;3560288;40;20437;-50
2021/06/17 09:22:26;;;;;;;8.68;7.57;;;;;;;32.01;33.72;100883.63;3559205;40;20037;-54
2021/06/17 09:24:55;;;;;;;8.95;8.00;;;;;;;32.73;33.35;100883.63;3560497;40;20046;-49
2021/06/17 09:27:29;;;;;;;7.80;7.10;;;;;;;32.50;33.09;100883.28;3552890;40;20057;-49
2021/06/17 09:30:14;;;;;;;7.55;6.85;;;;;;;32.51;31.54;100878.84;3558474;40;20053;-53
2021/06/17 09:32:53;;;;;;;9.68;7.28;;;;;;;32.34;32.73;100880.69;3553287;40;20057;-53
2021/06/17 09:35:26;;;;;;;8.02;6.93;;;;;;;32.87;32.00;100878.28;3549107;40;20354;-52
2021/06/17 09:38:02;;;;;;;7.95;7.22;;;;;;;33.10;31.94;100884.78;3547362;40;20050;-51
2021/06/17 09:40:35;;;;;;;7.32;6.60;;;;;;;33.33;30.85;100881.44;3551861;40;20054;-49
2021/06/17 09:43:22;;;;;;;8.70;6.82;;;;;;;33.29;29.95;100874.63;3556793;40;20121;-53
2021/06/17 09:46:01;;;;;;;8.30;6.80;;;;;;;33.53;29.56;100877.47;3557213;40;20046;-53
2021/06/17 09:48:49;;;;;;;7.90;7.07;;;;;;;33.52;30.32;100874.94;3557922;40;20046;-50
2021/06/17 09:51:35;;;;;;;7.65;6.72;;;;;;;34.33;29.41;100878.13;3555488;40;20406;-53
2021/06/17 09:54:14;;;;;;;7.13;6.30;;;;;;;34.29;30.06;100881.97;3553252;40;20485;-48
2021/06/17 09:56:47;;;;;;;7.03;5.68;;;;;;;34.53;28.13;100876.75;3550465;40;20094;-54
2021/06/17 09:59:49;;;;;;;8.88;5.35;;;;;;;34.61;26.43;100874.38;3550041;40;20061;-50
2021/06/17 10:02:31;;;;;;;6.45;5.47;;;;;;;34.16;27.88;100873.19;3549575;40;20085;-50
2021/06/17 10:05:19;;;;;;;6.97;5.28;;;;;;;35.03;26.06;100885.53;3550892;40;20054;-53
2021/06/17 10:07:49;;;;;;;5.38;4.88;;;;;;;35.82;24.12;100872.47;3558331;40;20038;-52
2021/06/17 10:10:22;;;;;;;5.97;5.43;;;;;;;36.10;25.13;100887.19;3557749;40;20085;-52
2021/06/17 10:12:49;;;;;;;5.82;5.32;;;;;;;37.95;22.79;100893.38;3551973;40;20110;-52
2021/06/17 10:15:17;;;;;;;8.30;5.75;;;;;;;38.93;20.69;100882.00;3560222;40;20072;-49
2021/06/17 10:17:50;;;;;;;5.55;5.05;;;;;;;39.22;21.41;100880.22;3554023;40;20050;-51
2021/06/17 10:20:17;;;;;;;5.95;5.45;;;;;;;40.36;21.16;100885.59;3550696;40;20054;-52
2021/06/17 10:22:56;;;;;;;5.40;4.93;;;;;;;40.41;19.63;100889.50;3552812;40;20083;-50
2021/06/17 10:25:30;;;;;;;6.13;5.07;;;;;;;42.63;17.59;100904.56;3551031;40;20145;-49
2021/06/17 10:27:57;;;;;;;5.85;4.97;;;;;;;43.09;17.37;100887.97;3553131;40;20054;-49
2021/06/17 10:30:46;;;;;;;6.68;5.88;;;;;;;44.04;15.87;100896.28;3550698;40;20428;-50
2021/06/17 10:33:32;;;;;;;6.20;5.60;;;;;;;43.34;17.87;100891.50;3548076;40;20053;-48
2021/06/17 10:36:17;;;;;;;8.15;6.38;;;;;;;43.47;17.12;100902.66;3547669;40;20368;-51
2021/06/17 10:39:04;;;;;;;7.28;5.72;;;;;;;44.05;16.69;100904.22;3546704;40;20042;-52
2021/06/17 10:41:56;;;;;;;6.15;5.65;;;;;;;44.56;15.79;100903.84;3542347;40;20146;-50
2021/06/17 10:44:48;;;;;;;5.53;5.03;;;;;;;44.13;16.54;100885.28;3547807;40;20415;-50
2021/06/17 10:47:49;;;;;;;5.90;5.20;;;;;;;44.61;16.38;100883.41;3549330;40;20407;-49
2021/06/17 10:50:39;;;;;;;6.35;5.63;;;;;;;44.50;15.86;100874.84;3557949;40;20067;-48
2021/06/17 10:53:39;;;;;;;8.02;5.10;;;;;;;45.03;15.70;100868.63;3552369;40;20398;-49
2021/06/17 10:56:16;;;;;;;7.57;5.40;;;;;;;42.42;17.32;100864.56;3559867;40;20464;-49
2021/06/17 10:58:43;;;;;;;6.78;5.57;;;;;;;44.10;16.85;100880.25;3558901;40;20053;-51
2021/06/17 11:01:33;;;;;;;6.28;5.20;;;;;;;44.26;15.26;100868.56;3558828;40;20050;-50
2021/06/17 11:04:34;;;;;;;5.75;5.00;;;;;;;44.16;16.37;100871.44;3558392;40;20084;-53
2021/06/17 11:07:04;;;;;;;5.30;4.90;;;;;;;42.08;17.42;100855.69;3560523;40;20042;-50
2021/06/17 11:09:57;;;;;;;5.97;5.05;;;;;;;43.98;16.14;100860.06;3556916;40;20120;-53
2021/06/17 11:12:29;;;;;;;;;;;;;;;43.39;16.86;100862.16;3557780;40;20048;-50
2021/06/17 11:15:00;;;;;;;6.28;5.13;;;;;;;46.37;14.05;100877.69;3557971;40;19933;-56
2021/06/17 11:17:34;;;;;;;5.63;4.75;;;;;;;43.51;15.85;100860.00;3558095;40;20407;-50
2021/06/17 11:20:18;;;;;;;5.30;4.90;;;;;;;45.50;14.62;100866.69;3558297;40;20060;-53
2021/06/17 11:22:48;;;;;;;6.05;5.13;;;;;;;45.06;14.57;100865.53;3549166;40;20387;-51
2021/06/17 11:25:16;;;;;;;5.15;4.65;;;;;;;45.83;14.40;100868.03;3550834;40;20066;-51
2021/06/17 11:28:13;;;;;;;5.60;4.57;;;;;;;44.89;14.35;100864.81;3548852;40;20049;-51
2021/06/17 11:30:41;;;;;;;5.22;4.72;;;;;;;47.09;12.58;100884.94;3548358;40;20065;-52
2021/06/17 11:33:14;;;;;;;4.88;4.55;;;;;;;45.64;13.35;100877.53;3550343;40;20128;-51
2021/06/17 11:35:43;;;;;;;7.95;5.03;;;;;;;46.34;13.33;100875.38;3551605;40;20443;-51
2021/06/17 11:38:10;;;;;;;6.28;5.68;;;;;;;44.56;14.88;100860.59;3551784;40;20553;-48
2021/06/17 11:40:38;;;;;;;6.00;5.53;;;;;;;45.98;13.95;100859.88;3546813;40;20075;-52